Airfield :
LOGIN :

Register | Disclaimer

   EN    FR    IT 

 










Legend :    VFR   Marginal VFR   IFR   Intensive IFR   Very Intensive IFR
Visi :
Ceiling :
>= 8 km
>= 3000ft
5 to 8 km
1000 to 3000 ft
1500m to 5 km
500 to 1000 ft
800 to 1500m
200 to 500 ft
< 800m
< 200 ft
Symbols :   Thunderstorms  Fog  Heavy snow  Heavy precipitations  Wind > 20 kt
SIGMETs :     Misc.  Thunderstorms  Icing  Turbulence  Mountain Waves  Volcanic Ashes






- Airport Elevation : 433 ft
- IATA code : CCF


LFMK - Carcassonne

CURRENT METAR :
  • 011300Z AUTO 28014KT 240V310 9999 FEW040 24/12 Q1015 NOSIG

EXPIRED METARs :
  • 011230Z AUTO 29013KT CAVOK 23/12 Q1015 NOSIG
  • 011200Z AUTO 29011KT 9999 SCT068 BKN082 22/13 Q1016 NOSIG
  • 011130Z AUTO 29013KT 260V320 9999 SCT036 BKN076 21/13 Q1016 NOSIG
  • 011100Z AUTO 30015KT 9999 SCT076 22/13 Q1016 NOSIG
  • 011030Z AUTO 28014KT 250V310 9999 FEW030 BKN080 21/12 Q1016 NOSIG

TAF TAF LFMK
Valid from the 01 at 09:00 until the 02 at 09:00 UTC


010800Z 0109/0209 28012KT 9999 SCT030



MET'MAP, your aeronautical weather chart ! - Copyright ORBIFLY December 2007 - Disclaimer

ORBIFLY MET'MAP TEAM :

Programming & Development : Alexandra Zaïnal
Concept & original design : Baudouin d'Aumeries
Assistance for programming : Marc-Olivier Méhu
Technical & hardware support : Manuel Goepfert

Contact : metmap@orbifly.com




SOURCES & CREDITS :

   NOAA